Weather History for Oxford, MS

Change the Weather History Date:

Friday, November 11, 2011

  Actual Average Record
Temperature  
Mean Temperature 45 °F -  
Max Temperature 62 °F 62 °F 78 °F (1985)
Min Temperature 28 °F 37 °F 18 °F (1991)
Degree Days  
Heating Degree Days 20    
Moisture  
Dew Point 29 °F    
Average Humidity 62    
Maximum Humidity 100    
Minimum Humidity 24    
Precipitation  
Precipitation 0.00 in - - ()
Sea Level Pressure  
Sea Level Pressure 30.20 in    
Wind  
Wind Speed 2 mph (SW)    
Max Wind Speed 15 mph    
Max Gust Speed 21 mph    
Visibility 10 miles    
Events      
Averages and records for this station are not official NWS values.
T = Trace of Precipitation, MM = Missing Value Source: NWS Daily Summary

Daily Weather History Graph

Daily Weather History Graph

Search for Another Location

Airport:

Trip Planner

Search our weather history database for the weather conditions in past years. The results will help you decide how hot, cold, wet, or windy it might be!

Date:

Astronomy

Nov. 11, 2011 Rise Set
Actual Time 6:27 AM CST 4:56 PM CST
Civil Twilight 6:00 AM CST 5:23 PM CST
Nautical Twilight 5:30 AM CST 5:53 PM CST
Astronomical Twilight 5:01 AM CST 6:22 PM CST
Moon 5:29 PM CST (11/11) 7:12 AM CST (11/11)
Length of Visible Light 11h 22m
Length of Day
10h 29m
Full, 99% of the Moon is Illuminated
Nov 11
Full
Nov 18
Last Quarter
Nov 25
New
Dec 2
First Quarter
Dec 10
Full

Hourly Weather History & Observations

Time (CST) Temp. Dew Point Humidity Pressure Visibility Wind Dir Wind Speed Gust Speed Precip Events Conditions
12:15 AM 32.0 °F 28.4 °F 87% 30.23 in 10.0 mi Calm Calm - N/A   Clear
12:35 AM 30.2 °F 26.6 °F 86% 30.23 in 10.0 mi Calm Calm - N/A   Clear
12:55 AM 30.2 °F 26.6 °F 86% 30.23 in 10.0 mi Calm Calm - N/A   Clear
1:15 AM 28.4 °F 26.6 °F 93% 30.23 in 10.0 mi Calm Calm - N/A   Clear
1:35 AM 28.4 °F 26.6 °F 93% 30.23 in 10.0 mi Calm Calm - N/A   Clear
1:55 AM 28.4 °F 26.6 °F 93% 30.23 in 10.0 mi Calm Calm - N/A   Clear
2:35 AM 28.4 °F 26.6 °F 93% 30.23 in 10.0 mi Calm Calm - N/A   Clear
2:55 AM 28.4 °F 26.6 °F 93% 30.23 in 10.0 mi Calm Calm - N/A   Clear
3:15 AM 28.4 °F 26.6 °F 93% 30.23 in 10.0 mi Calm Calm - N/A   Clear
3:35 AM 28.4 °F 26.6 °F 93% 30.23 in 10.0 mi Calm Calm - N/A   Clear
3:55 AM 28.4 °F 26.6 °F 93% 30.23 in 10.0 mi Calm Calm - N/A   Clear
4:15 AM 28.4 °F 26.6 °F 93% 30.24 in 10.0 mi Calm Calm - N/A   Clear
4:35 AM 28.4 °F 26.6 °F 93% 30.24 in 10.0 mi Calm Calm - N/A   Clear
4:55 AM 28.4 °F 26.6 °F 93% 30.24 in 10.0 mi Calm Calm - N/A   Clear
5:15 AM 28.4 °F 26.6 °F 93% 30.24 in 10.0 mi Calm Calm - N/A   Clear
5:35 AM 28.4 °F 26.6 °F 93% 30.24 in 10.0 mi Calm Calm - N/A   Clear
5:55 AM 28.4 °F 26.6 °F 93% 30.24 in 10.0 mi Calm Calm - N/A   Clear
6:15 AM 28.4 °F 28.4 °F 100% 30.24 in 10.0 mi Calm Calm - N/A   Clear
6:35 AM 28.4 °F 26.6 °F 93% 30.24 in 10.0 mi Calm Calm - N/A   Clear
6:55 AM 28.4 °F 26.6 °F 93% 30.24 in 9.0 mi Calm Calm - N/A   Clear
7:15 AM 32.0 °F 28.4 °F 87% 30.24 in 10.0 mi Calm Calm - N/A   Clear
7:35 AM 33.8 °F 32.0 °F 93% 30.24 in 10.0 mi Calm Calm - N/A   Clear
7:55 AM 37.4 °F 30.2 °F 75% 30.25 in 10.0 mi Calm Calm - N/A   Clear
8:15 AM 41.0 °F 28.4 °F 61% 30.25 in 10.0 mi Calm Calm - N/A   Clear
8:35 AM 44.6 °F 30.2 °F 57% 30.26 in 10.0 mi Calm Calm - N/A   Clear
8:55 AM 44.6 °F 30.2 °F 57% 30.25 in 10.0 mi Calm Calm - N/A   Clear
9:15 AM 48.2 °F 30.2 °F 50% 30.25 in 10.0 mi SW 4.6 mph - N/A   Clear
9:35 AM 50.0 °F 30.2 °F 47% 30.25 in 10.0 mi SSW 6.9 mph - N/A   Clear
9:55 AM 51.8 °F 32.0 °F 47% 30.24 in 10.0 mi SW 3.5 mph - N/A   Clear
10:15 AM 53.6 °F 32.0 °F 44% 30.24 in 10.0 mi SSW 4.6 mph - N/A   Clear
10:35 AM 55.4 °F 32.0 °F 41% 30.23 in 10.0 mi SSW 3.5 mph - N/A   Clear
10:55 AM 57.2 °F 30.2 °F 36% 30.22 in 10.0 mi West 8.1 mph - N/A   Clear
11:15 AM 57.2 °F 28.4 °F 33% 30.20 in 10.0 mi SW 9.2 mph - N/A   Clear
11:35 AM 59.0 °F 30.2 °F 34% 30.19 in 10.0 mi WSW 10.4 mph - N/A   Clear
11:55 AM 59.0 °F 28.4 °F 31% 30.18 in 10.0 mi SW 13.8 mph - N/A   Clear
12:15 PM 60.8 °F 28.4 °F 29% 30.18 in 10.0 mi SW 11.5 mph 17.3 mph N/A   Clear
12:35 PM 62.6 °F 28.4 °F 27% 30.16 in 10.0 mi SW 9.2 mph 19.6 mph N/A   Clear
12:55 PM 62.6 °F 28.4 °F 27% 30.16 in 10.0 mi WSW 12.7 mph 19.6 mph N/A   Clear
1:35 PM 62.6 °F 24.8 °F 24% 30.14 in 10.0 mi WSW 9.2 mph - N/A   Clear
1:55 PM 62.6 °F 28.4 °F 27% 30.14 in 10.0 mi SW 12.7 mph 20.7 mph N/A   Clear
2:15 PM 62.6 °F 28.4 °F 27% 30.14 in 10.0 mi WSW 9.2 mph - N/A   Clear
2:35 PM 62.6 °F 28.4 °F 27% 30.14 in 10.0 mi WSW 12.7 mph 17.3 mph N/A   Clear
2:55 PM 62.6 °F 28.4 °F 27% 30.13 in 10.0 mi SSW 9.2 mph 17.3 mph N/A   Clear
3:15 PM 62.6 °F 28.4 °F 27% 30.13 in 10.0 mi SW 15.0 mph 20.7 mph N/A   Clear
3:35 PM 62.6 °F 30.2 °F 30% 30.13 in 10.0 mi SSW 6.9 mph - N/A   Clear
3:55 PM 60.8 °F 28.4 °F 29% 30.13 in 10.0 mi SW 9.2 mph 18.4 mph N/A   Clear
4:35 PM 59.0 °F 30.2 °F 34% 30.13 in 10.0 mi SW 9.2 mph - N/A   Clear
4:55 PM 57.2 °F 28.4 °F 33% 30.13 in 10.0 mi Calm Calm - N/A   Clear
5:35 PM 50.0 °F 32.0 °F 50% 30.14 in 10.0 mi Calm Calm - N/A   Clear
5:55 PM 48.2 °F 32.0 °F 54% 30.14 in 10.0 mi Calm Calm - N/A   Clear
6:15 PM 50.0 °F 32.0 °F 50% 30.14 in 10.0 mi Calm Calm - N/A   Clear
6:35 PM 48.2 °F 33.8 °F 58% 30.14 in 10.0 mi Calm Calm - N/A   Clear
6:55 PM 48.2 °F 33.8 °F 58% 30.14 in 10.0 mi Calm Calm - N/A   Clear
7:15 PM 48.2 °F 32.0 °F 54% 30.14 in 10.0 mi Calm Calm - N/A   Clear
7:35 PM 50.0 °F 32.0 °F 50% 30.14 in 10.0 mi SSW 4.6 mph - N/A   Clear
7:55 PM 50.0 °F 32.0 °F 50% 30.13 in 10.0 mi Calm Calm - N/A   Clear
8:15 PM 50.0 °F 32.0 °F 50% 30.13 in 10.0 mi SSW 3.5 mph - N/A   Clear
8:35 PM 50.0 °F 32.0 °F 50% 30.14 in 10.0 mi Calm Calm - N/A   Clear
8:55 PM 50.0 °F 32.0 °F 50% 30.14 in 10.0 mi South 3.5 mph - N/A   Clear
9:15 PM 50.0 °F 32.0 °F 50% 30.14 in 10.0 mi South 3.5 mph - N/A   Clear
9:35 PM 48.2 °F 32.0 °F 54% 30.14 in 10.0 mi Calm Calm - N/A   Clear
9:55 PM 48.2 °F 32.0 °F 54% 30.14 in 10.0 mi Calm Calm - N/A   Clear
10:15 PM 48.2 °F 32.0 °F 54% 30.14 in 10.0 mi SSW 3.5 mph - N/A   Clear
10:35 PM 48.2 °F 32.0 °F 54% 30.14 in 10.0 mi SSW 3.5 mph - N/A   Clear
10:55 PM 48.2 °F 32.0 °F 54% 30.14 in 10.0 mi SSW 3.5 mph - N/A   Clear
11:15 PM 48.2 °F 32.0 °F 54% 30.13 in 10.0 mi SSW 4.6 mph - N/A   Clear
11:55 PM 48.2 °F 32.0 °F 54% 30.14 in 10.0 mi Calm Calm - N/A   Clear